createdAt,value
2023-04-08T00:00:56.483Z,32.80
2023-04-08T00:01:56.572Z,32.30
2023-04-08T00:02:56.590Z,32.70
2023-04-08T00:03:56.735Z,31.20
2023-04-08T00:04:56.546Z,32.60
2023-04-08T00:05:56.460Z,32.90
2023-04-08T00:06:56.452Z,33.50
2023-04-08T00:07:56.458Z,33.40
2023-04-08T00:08:56.473Z,34.30
2023-04-08T00:09:56.440Z,32.50
2023-04-08T00:10:56.438Z,33.80
2023-04-08T00:11:56.432Z,34.00
2023-04-08T00:12:56.426Z,34.90
2023-04-08T00:13:56.422Z,35.40
2023-04-08T00:14:56.419Z,33.00
2023-04-08T00:15:56.416Z,35.00
2023-04-08T00:16:56.434Z,35.20
2023-04-08T00:17:56.510Z,35.90
2023-04-08T00:18:56.398Z,34.50
2023-04-08T00:19:56.396Z,36.50
2023-04-08T00:20:56.388Z,36.20
2023-04-08T00:21:56.392Z,35.00
2023-04-08T00:22:56.383Z,36.10
2023-04-08T00:23:56.380Z,35.20
2023-04-08T00:24:56.390Z,35.40
2023-04-08T00:25:56.369Z,35.40
2023-04-08T00:26:56.369Z,35.90
2023-04-08T00:27:56.359Z,36.00
2023-04-08T00:28:56.352Z,35.60
2023-04-08T00:29:56.350Z,36.40
2023-04-08T00:30:56.395Z,35.10
2023-04-08T00:31:56.356Z,34.70
2023-04-08T00:32:56.406Z,36.20
2023-04-08T00:33:56.330Z,36.80
2023-04-08T00:34:56.326Z,36.80
2023-04-08T00:35:56.338Z,36.40
2023-04-08T00:36:56.329Z,36.40
2023-04-08T00:37:56.316Z,36.50
2023-04-08T00:38:56.310Z,38.00
2023-04-08T00:39:56.310Z,37.10
2023-04-08T00:40:56.318Z,38.30
2023-04-08T00:41:56.327Z,39.20
2023-04-08T00:42:56.291Z,39.10
2023-04-08T00:43:56.286Z,38.10
2023-04-08T00:44:56.289Z,38.10
2023-04-08T00:45:56.356Z,39.70
2023-04-08T00:46:56.271Z,39.40
2023-04-08T00:47:56.293Z,39.80
2023-04-08T00:48:56.263Z,39.20
2023-04-08T00:49:56.258Z,38.80
2023-04-08T00:50:56.255Z,42.30
2023-04-08T00:51:56.252Z,41.50
2023-04-08T00:52:56.242Z,41.10
2023-04-08T00:53:56.238Z,41.50
2023-04-08T00:54:56.232Z,40.10
2023-04-08T00:55:56.233Z,40.70
2023-04-08T00:56:56.251Z,41.30
2023-04-08T00:57:56.225Z,42.40
2023-04-08T00:58:56.229Z,41.20
2023-04-08T00:59:56.219Z,40.80
2023-04-08T01:00:56.207Z,43.30
2023-04-08T01:01:56.270Z,39.50
2023-04-08T01:02:56.319Z,41.60
2023-04-08T01:03:56.408Z,43.60
2023-04-08T01:04:56.189Z,41.60
2023-04-08T01:05:56.191Z,42.80
2023-04-08T01:06:56.181Z,41.80
2023-04-08T01:07:56.183Z,43.50
2023-04-08T01:08:56.171Z,44.00
2023-04-08T01:09:56.168Z,43.60
2023-04-08T01:10:56.168Z,43.90
2023-04-08T01:11:56.158Z,44.70
2023-04-08T01:12:56.179Z,43.60
2023-04-08T01:13:56.150Z,46.30
2023-04-08T01:14:56.148Z,45.00
2023-04-08T01:15:56.164Z,45.60
2023-04-08T01:16:56.136Z,45.30
2023-04-08T01:17:56.203Z,46.20
2023-04-08T01:18:56.127Z,45.90
2023-04-08T01:19:56.121Z,45.20
2023-04-08T01:20:56.116Z,44.30
2023-04-08T01:21:56.115Z,46.20
2023-04-08T01:22:56.111Z,46.70
2023-04-08T01:23:56.106Z,45.90
2023-04-08T01:24:56.103Z,45.70
2023-04-08T01:25:56.109Z,46.30
2023-04-08T01:26:56.096Z,46.80
2023-04-08T01:27:56.087Z,47.30
2023-04-08T01:28:56.102Z,47.30
2023-04-08T01:29:56.082Z,49.10
2023-04-08T01:30:56.084Z,48.70
2023-04-08T01:31:56.075Z,48.20
2023-04-08T01:32:56.140Z,49.90
2023-04-08T01:33:56.061Z,49.30
2023-04-08T01:34:56.054Z,49.50
2023-04-08T01:35:56.545Z,51.90
2023-04-08T01:36:57.962Z,51.10
2023-04-08T01:37:56.047Z,51.10
2023-04-08T01:38:56.042Z,51.70
2023-04-08T01:39:56.038Z,51.10
2023-04-08T01:40:56.034Z,50.40
2023-04-08T01:41:56.031Z,51.50
2023-04-08T01:42:56.023Z,49.40
2023-04-08T01:43:56.017Z,52.20
2023-04-08T01:44:56.036Z,51.40
2023-04-08T01:45:56.013Z,52.90
2023-04-08T01:46:56.074Z,51.60
2023-04-08T01:47:56.041Z,53.20
2023-04-08T01:48:56.000Z,54.40
2023-04-08T01:49:55.988Z,52.00
2023-04-08T01:50:55.992Z,54.70
2023-04-08T01:51:55.986Z,53.20
2023-04-08T01:52:55.996Z,51.10
2023-04-08T01:53:55.974Z,52.80
2023-04-08T01:54:55.978Z,51.10
2023-04-08T01:55:55.965Z,52.20
2023-04-08T01:56:55.967Z,53.40
2023-04-08T01:57:55.965Z,54.20
2023-04-08T01:58:55.952Z,53.90
2023-04-08T01:59:55.956Z,52.50
2023-04-08T02:00:55.968Z,52.90
2023-04-08T02:01:56.027Z,51.10
2023-04-08T02:02:56.214Z,52.50
2023-04-08T02:03:56.017Z,52.60
2023-04-08T02:04:55.932Z,52.60
2023-04-08T02:05:55.920Z,53.10
2023-04-08T02:06:55.919Z,51.10
2023-04-08T02:07:55.915Z,50.10
2023-04-08T02:08:55.908Z,47.40
2023-04-08T02:09:55.902Z,50.00
2023-04-08T02:10:55.903Z,49.10
2023-04-08T02:11:55.893Z,50.90
2023-04-08T02:12:55.895Z,53.10
2023-04-08T02:13:55.883Z,51.40
2023-04-08T02:14:55.880Z,50.30
2023-04-08T02:15:55.898Z,51.30
2023-04-08T02:16:55.898Z,48.50
2023-04-08T02:17:56.071Z,48.90
2023-04-08T02:18:55.869Z,48.80
2023-04-08T02:19:55.859Z,52.60
2023-04-08T02:20:55.861Z,51.70
2023-04-08T02:21:55.848Z,51.80
2023-04-08T02:22:55.843Z,52.30
2023-04-08T02:23:55.841Z,51.30
2023-04-08T02:24:55.852Z,49.80
2023-04-08T02:25:55.845Z,49.90
2023-04-08T02:26:55.839Z,49.70
2023-04-08T02:27:55.820Z,51.20
2023-04-08T02:28:55.819Z,50.50
2023-04-08T02:29:55.811Z,50.90
2023-04-08T02:30:55.825Z,50.70
2023-04-08T02:31:55.931Z,51.30
2023-04-08T02:32:55.939Z,52.40
2023-04-08T02:33:55.798Z,52.30
2023-04-08T02:34:55.796Z,53.30
2023-04-08T02:35:55.824Z,52.90
2023-04-08T02:36:55.783Z,54.20
2023-04-08T02:37:55.775Z,53.30
2023-04-08T02:38:55.775Z,50.40
2023-04-08T02:39:55.772Z,53.80
2023-04-08T02:40:55.765Z,53.00
2023-04-08T02:41:55.766Z,51.90
2023-04-08T02:42:55.756Z,54.00
2023-04-08T02:43:55.755Z,53.50
2023-04-08T02:44:55.751Z,53.30
2023-04-08T02:45:55.827Z,53.80
2023-04-08T02:46:55.745Z,52.30
2023-04-08T02:47:55.781Z,48.10
2023-04-08T02:48:55.760Z,50.80
2023-04-08T02:49:55.722Z,48.20
2023-04-08T02:50:55.732Z,52.00
2023-04-08T02:51:55.727Z,53.50
2023-04-08T02:52:55.713Z,54.80
2023-04-08T02:53:55.707Z,54.00
2023-04-08T02:54:55.706Z,52.70
2023-04-08T02:55:55.695Z,55.70
2023-04-08T02:56:55.697Z,55.30
2023-04-08T02:57:55.699Z,52.90
2023-04-08T02:58:55.683Z,51.40
2023-04-08T02:59:55.688Z,50.70
2023-04-08T03:00:55.705Z,52.20
2023-04-08T03:01:55.719Z,55.60
2023-04-08T03:02:55.807Z,54.60
2023-04-08T03:03:55.720Z,53.90
2023-04-08T03:04:55.678Z,49.90
2023-04-08T03:05:55.654Z,54.40
2023-04-08T03:06:55.653Z,54.30
2023-04-08T03:07:55.644Z,53.80
2023-04-08T03:08:55.638Z,52.70
2023-04-08T03:09:55.732Z,54.00
2023-04-08T03:10:55.640Z,55.10
2023-04-08T03:11:55.623Z,48.40
2023-04-08T03:12:55.624Z,49.80
2023-04-08T03:13:55.618Z,55.60
2023-04-08T03:14:55.611Z,53.60
2023-04-08T03:15:55.607Z,54.50
2023-04-08T03:16:55.705Z,56.20
2023-04-08T03:17:55.670Z,54.90
2023-04-08T03:18:55.596Z,57.40
2023-04-08T03:19:55.592Z,57.70
2023-04-08T03:20:55.608Z,57.10
2023-04-08T03:21:55.580Z,57.30
2023-04-08T03:22:55.579Z,53.40
2023-04-08T03:23:55.572Z,51.60
2023-04-08T03:24:55.568Z,53.20
2023-04-08T03:25:55.563Z,54.10
2023-04-08T03:26:55.567Z,53.00
2023-04-08T03:27:55.553Z,54.30
2023-04-08T03:28:55.552Z,53.00
2023-04-08T03:29:55.544Z,51.80
2023-04-08T03:30:55.560Z,47.90
2023-04-08T03:31:55.602Z,44.50
2023-04-08T03:32:55.577Z,45.90
2023-04-08T03:33:55.527Z,41.80
2023-04-08T03:34:55.525Z,45.30
2023-04-08T03:35:55.601Z,45.30
2023-04-08T03:36:55.606Z,49.40
2023-04-08T03:37:55.513Z,50.20
2023-04-08T03:38:55.513Z,50.30
2023-04-08T03:39:55.505Z,48.90
2023-04-08T03:40:55.700Z,49.40
2023-04-08T03:41:55.492Z,49.80
2023-04-08T03:42:55.489Z,49.70
2023-04-08T03:43:55.487Z,47.20
2023-04-08T03:44:55.486Z,41.00
2023-04-08T03:45:55.535Z,43.90
2023-04-08T03:46:55.472Z,34.90
2023-04-08T03:47:55.516Z,42.40
2023-04-08T03:48:55.463Z,37.90
2023-04-08T03:49:55.480Z,35.90
2023-04-08T03:50:55.469Z,29.60
2023-04-08T03:51:55.459Z,30.40
2023-04-08T03:52:55.476Z,35.30
2023-04-08T03:53:55.452Z,38.20
2023-04-08T03:54:55.434Z,32.80
2023-04-08T03:55:55.429Z,29.20
2023-04-08T03:56:55.428Z,26.40
2023-04-08T03:57:55.419Z,26.70
2023-04-08T03:58:55.428Z,26.60
2023-04-08T03:59:55.411Z,27.60
2023-04-08T04:00:55.421Z,27.50
2023-04-08T04:01:55.482Z,33.70
2023-04-08T04:02:55.509Z,32.20
2023-04-08T04:03:55.574Z,34.00
2023-04-08T04:04:55.450Z,33.70
2023-04-08T04:05:55.384Z,32.40
2023-04-08T04:06:55.381Z,29.70
2023-04-08T04:07:55.393Z,30.70
2023-04-08T04:08:55.403Z,32.10
2023-04-08T04:09:55.364Z,32.40
2023-04-08T04:10:55.366Z,26.70
2023-04-08T04:11:55.358Z,24.00
2023-04-08T04:12:55.357Z,22.20
2023-04-08T04:13:55.346Z,22.80
2023-04-08T04:14:55.347Z,24.30
2023-04-08T04:15:55.416Z,23.40
2023-04-08T04:16:55.340Z,33.40
2023-04-08T04:17:55.405Z,32.90
2023-04-08T04:18:55.402Z,28.70
2023-04-08T04:19:55.321Z,28.10
2023-04-08T04:20:55.321Z,32.00
2023-04-08T04:21:55.310Z,34.10
2023-04-08T04:22:55.310Z,27.90
2023-04-08T04:23:55.315Z,21.70
2023-04-08T04:24:55.316Z,26.10
2023-04-08T04:25:55.297Z,23.40
2023-04-08T04:26:55.288Z,23.30
2023-04-08T04:27:55.292Z,27.70
2023-04-08T04:28:55.282Z,30.10
2023-04-08T04:29:55.274Z,30.30
2023-04-08T04:30:56.626Z,27.90
2023-04-08T04:31:55.270Z,28.90
2023-04-08T04:32:55.294Z,28.90
2023-04-08T04:33:55.284Z,29.40
2023-04-08T04:34:55.250Z,30.40
2023-04-08T04:35:55.275Z,30.60
2023-04-08T04:36:55.243Z,28.50
2023-04-08T04:37:55.237Z,31.90
2023-04-08T04:38:55.560Z,29.00
2023-04-08T04:39:55.227Z,30.70
2023-04-08T04:40:55.645Z,33.50
2023-04-08T04:41:55.222Z,31.70
2023-04-08T04:42:55.225Z,28.90
2023-04-08T04:43:55.209Z,33.20
2023-04-08T04:44:55.206Z,36.20
2023-04-08T04:45:55.197Z,34.20
2023-04-08T04:46:55.220Z,35.40
2023-04-08T04:47:55.224Z,35.00
2023-04-08T04:48:55.186Z,36.20
2023-04-08T04:49:55.179Z,34.20
2023-04-08T04:50:55.176Z,34.50
2023-04-08T04:51:55.172Z,36.50
2023-04-08T04:52:55.166Z,35.80
2023-04-08T04:53:55.162Z,37.70
2023-04-08T04:54:55.158Z,35.30
2023-04-08T04:55:55.150Z,34.00
2023-04-08T04:56:55.169Z,33.30
2023-04-08T04:57:55.143Z,34.50
2023-04-08T04:58:55.146Z,33.20
2023-04-08T04:59:55.184Z,36.10
2023-04-08T05:00:55.141Z,34.80
2023-04-08T05:01:55.182Z,39.10
2023-04-08T05:02:55.211Z,38.90
2023-04-08T05:03:55.123Z,32.40
2023-04-08T05:04:55.192Z,33.20
2023-04-08T05:05:55.121Z,38.80
2023-04-08T05:06:55.108Z,32.90
2023-04-08T05:07:55.099Z,34.20
2023-04-08T05:08:55.101Z,31.80
2023-04-08T05:09:55.089Z,32.60
2023-04-08T05:10:55.087Z,33.80
2023-04-08T05:11:55.101Z,31.00
2023-04-08T05:12:55.115Z,28.20
2023-04-08T05:13:55.087Z,29.20
2023-04-08T05:14:55.078Z,32.60
2023-04-08T05:15:55.119Z,33.00
2023-04-08T05:16:55.071Z,29.50
2023-04-08T05:17:55.115Z,31.00
2023-04-08T05:18:55.057Z,31.60
2023-04-08T05:19:55.054Z,31.70
2023-04-08T05:20:55.048Z,30.50
2023-04-08T05:21:55.041Z,32.50
2023-04-08T05:22:55.041Z,35.20
2023-04-08T05:23:55.061Z,30.30
2023-04-08T05:24:55.031Z,27.90
2023-04-08T05:25:55.024Z,26.30
2023-04-08T05:26:55.022Z,28.80
2023-04-08T05:27:55.021Z,36.70
2023-04-08T05:28:55.033Z,27.00
2023-04-08T05:29:55.019Z,23.10
2023-04-08T05:30:55.006Z,20.30
2023-04-08T05:31:55.037Z,20.70
2023-04-08T05:32:55.599Z,18.80
2023-04-08T05:33:55.010Z,21.20
2023-04-08T05:34:54.985Z,27.10
2023-04-08T05:35:55.030Z,33.70
2023-04-08T05:36:54.978Z,33.60
2023-04-08T05:37:54.970Z,31.90
2023-04-08T05:38:54.977Z,26.50
2023-04-08T05:39:54.978Z,24.60
2023-04-08T05:40:54.956Z,30.70
2023-04-08T05:41:54.955Z,31.30
2023-04-08T05:42:54.946Z,25.40
2023-04-08T05:43:54.946Z,31.40
2023-04-08T05:44:55.052Z,31.00
2023-04-08T05:45:54.930Z,24.00
2023-04-08T05:46:54.954Z,24.30
2023-04-08T05:47:54.948Z,22.70
2023-04-08T05:48:54.918Z,24.50
2023-04-08T05:49:54.913Z,26.80
2023-04-08T05:50:54.906Z,25.10
2023-04-08T05:51:54.904Z,26.30
2023-04-08T05:52:54.899Z,23.70
2023-04-08T05:53:54.901Z,22.70
2023-04-08T05:54:54.889Z,23.30
2023-04-08T05:55:54.888Z,23.10
2023-04-08T05:56:54.876Z,25.30
2023-04-08T05:57:54.889Z,23.80
2023-04-08T05:58:54.868Z,23.00
2023-04-08T05:59:54.879Z,23.40
2023-04-08T06:00:54.879Z,22.40
2023-04-08T06:01:54.927Z,21.90
2023-04-08T06:02:55.075Z,22.20
2023-04-08T06:03:54.977Z,22.60
2023-04-08T06:04:54.875Z,24.40
2023-04-08T06:05:54.832Z,25.60
2023-04-08T06:06:54.824Z,25.50
2023-04-08T06:07:54.825Z,25.60
2023-04-08T06:08:54.816Z,29.90
2023-04-08T06:09:54.813Z,29.00
2023-04-08T06:10:54.809Z,28.20
2023-04-08T06:11:54.801Z,27.40
2023-04-08T06:12:54.794Z,27.40
2023-04-08T06:13:54.801Z,27.70
2023-04-08T06:14:54.785Z,27.40
2023-04-08T06:15:54.784Z,27.00
2023-04-08T06:16:54.865Z,27.00
2023-04-08T06:17:54.803Z,27.60
2023-04-08T06:18:54.765Z,27.40
2023-04-08T06:19:54.764Z,28.40
2023-04-08T06:20:54.757Z,28.20
2023-04-08T06:21:54.752Z,27.70
2023-04-08T06:22:54.749Z,27.00
2023-04-08T06:23:54.744Z,26.00
2023-04-08T06:24:54.738Z,24.10
2023-04-08T06:25:54.734Z,23.30
2023-04-08T06:26:54.732Z,25.80
2023-04-08T06:27:54.724Z,29.40
2023-04-08T06:28:54.718Z,33.40
2023-04-08T06:29:54.716Z,34.30
2023-04-08T06:30:54.710Z,34.00
2023-04-08T06:31:54.755Z,38.30
2023-04-08T06:32:54.817Z,39.80
2023-04-08T06:33:54.697Z,41.00
2023-04-08T06:34:54.692Z,42.30
2023-04-08T06:35:54.715Z,41.40
2023-04-08T06:36:54.690Z,42.10
2023-04-08T06:37:54.691Z,42.30
2023-04-08T06:38:54.679Z,42.80
2023-04-08T06:39:54.833Z,43.90
2023-04-08T06:40:54.668Z,42.50
2023-04-08T06:41:54.665Z,43.10
2023-04-08T06:42:54.664Z,42.40
2023-04-08T06:43:54.657Z,39.30
2023-04-08T06:44:54.649Z,41.10
2023-04-08T06:45:54.662Z,42.80
2023-04-08T06:46:54.644Z,43.30
2023-04-08T06:47:54.695Z,44.10
2023-04-08T06:48:54.657Z,44.70
2023-04-08T06:49:54.629Z,42.60
2023-04-08T06:50:54.616Z,44.10
2023-04-08T06:51:54.615Z,44.60
2023-04-08T06:52:54.605Z,44.40
2023-04-08T06:53:54.601Z,42.40
2023-04-08T06:54:54.600Z,40.40
2023-04-08T06:55:54.596Z,43.90
2023-04-08T06:56:54.587Z,44.10
2023-04-08T06:57:54.584Z,44.90
2023-04-08T06:58:54.588Z,44.10
2023-04-08T06:59:54.573Z,43.50
2023-04-08T07:00:54.586Z,43.90
2023-04-08T07:01:54.717Z,45.50
2023-04-08T07:02:54.653Z,43.50
2023-04-08T07:03:54.616Z,41.80
2023-04-08T07:04:54.572Z,44.80
2023-04-08T07:05:54.769Z,45.60
2023-04-08T07:06:54.543Z,44.80
2023-04-08T07:07:54.535Z,44.80
2023-04-08T07:08:54.527Z,43.80
2023-04-08T07:09:54.528Z,44.30
2023-04-08T07:10:54.523Z,45.10
2023-04-08T07:11:54.521Z,46.20
2023-04-08T07:12:54.516Z,46.90
2023-04-08T07:13:54.518Z,48.10
2023-04-08T07:14:54.499Z,49.70
2023-04-08T07:15:54.497Z,49.50
2023-04-08T07:16:54.598Z,50.10
2023-04-08T07:17:54.504Z,50.60
2023-04-08T07:18:54.484Z,51.60
2023-04-08T07:19:54.477Z,50.30
2023-04-08T07:20:54.590Z,47.60
2023-04-08T07:21:54.462Z,49.90
2023-04-08T07:22:54.463Z,52.50
2023-04-08T07:23:54.457Z,53.30
2023-04-08T07:24:54.454Z,52.00
2023-04-08T07:25:54.447Z,55.00
2023-04-08T07:26:54.441Z,53.90
2023-04-08T07:27:54.443Z,55.20
2023-04-08T07:28:54.433Z,54.60
2023-04-08T07:29:54.428Z,53.70
2023-04-08T07:30:54.433Z,56.40
2023-04-08T07:31:54.416Z,56.70
2023-04-08T07:32:54.444Z,58.90
2023-04-08T07:33:54.409Z,59.10
2023-04-08T07:34:54.404Z,60.20
2023-04-08T07:35:54.543Z,58.50
2023-04-08T07:36:54.424Z,62.00
2023-04-08T07:37:54.387Z,62.50
2023-04-08T07:38:54.378Z,58.40
2023-04-08T07:39:54.395Z,58.40
2023-04-08T07:40:54.379Z,63.90
2023-04-08T07:41:54.366Z,66.20
2023-04-08T07:42:54.369Z,70.10
2023-04-08T07:43:54.364Z,71.80
2023-04-08T07:44:54.350Z,69.90
2023-04-08T07:45:54.826Z,70.10
2023-04-08T07:46:54.346Z,71.30
2023-04-08T07:47:54.404Z,69.60
2023-04-08T07:48:54.346Z,65.50
2023-04-08T07:49:54.422Z,64.50
2023-04-08T07:51:08.815Z,63.90
2023-04-08T07:51:54.314Z,67.50
2023-04-08T07:52:54.349Z,73.20
2023-04-08T07:53:54.313Z,78.70
2023-04-08T07:54:54.314Z,83.20
2023-04-08T07:55:54.343Z,80.40
2023-04-08T07:56:54.289Z,83.90
2023-04-08T07:57:54.294Z,86.40
2023-04-08T07:58:54.575Z,85.80
2023-04-08T07:59:54.291Z,83.60
2023-04-08T08:00:54.279Z,81.50
2023-04-08T08:01:54.379Z,76.50
2023-04-08T08:02:54.310Z,81.80
2023-04-08T08:03:54.747Z,83.40
2023-04-08T08:04:54.270Z,84.20
2023-04-08T08:05:54.249Z,83.00
2023-04-08T08:06:54.243Z,79.30
2023-04-08T08:07:54.234Z,84.60
2023-04-08T08:08:54.251Z,84.60
2023-04-08T08:09:54.229Z,83.50
2023-04-08T08:10:54.219Z,84.70
2023-04-08T08:11:54.231Z,84.40
2023-04-08T08:12:54.216Z,83.30
2023-04-08T08:13:54.217Z,82.90
2023-04-08T08:14:54.200Z,82.60
2023-04-08T08:15:54.230Z,85.20
2023-04-08T08:16:54.199Z,76.30
2023-04-08T08:17:54.219Z,79.00
2023-04-08T08:18:54.187Z,83.30
2023-04-08T08:19:54.181Z,83.60
2023-04-08T08:20:54.173Z,84.30
2023-04-08T08:21:54.165Z,81.90
2023-04-08T08:22:57.517Z,80.60
2023-04-08T08:23:54.155Z,79.80
2023-04-08T08:24:54.174Z,80.50
2023-04-08T08:25:54.144Z,78.70
2023-04-08T08:26:54.138Z,79.90
2023-04-08T08:27:54.135Z,80.50
2023-04-08T08:28:54.132Z,80.30
2023-04-08T08:29:54.130Z,77.30
2023-04-08T08:30:54.154Z,77.40
2023-04-08T08:31:54.118Z,79.60
2023-04-08T08:32:54.216Z,77.90
2023-04-08T08:33:54.106Z,76.80
2023-04-08T08:34:54.099Z,76.30
2023-04-08T08:35:54.121Z,76.30
2023-04-08T08:36:54.099Z,74.80
2023-04-08T08:37:54.092Z,74.80
2023-04-08T08:38:54.096Z,74.50
2023-04-08T08:39:54.075Z,73.20
2023-04-08T08:40:54.091Z,70.60
2023-04-08T08:41:54.065Z,73.50
2023-04-08T08:42:54.078Z,72.50
2023-04-08T08:43:54.056Z,70.60
2023-04-08T08:44:54.052Z,69.60
2023-04-08T08:45:54.044Z,70.00
2023-04-08T08:46:54.125Z,68.50
2023-04-08T08:47:54.081Z,68.90
2023-04-08T08:48:54.026Z,69.00
2023-04-08T08:49:54.025Z,68.80
2023-04-08T08:50:54.024Z,69.00
2023-04-08T08:51:54.016Z,69.90
2023-04-08T08:52:54.012Z,70.30
2023-04-08T08:53:54.326Z,68.70
2023-04-08T08:54:53.999Z,68.00
2023-04-08T08:56:16.232Z,69.20
2023-04-08T08:56:54.006Z,69.40
2023-04-08T08:57:53.991Z,69.60
2023-04-08T08:58:53.989Z,68.30
2023-04-08T08:59:53.977Z,69.60
2023-04-08T09:00:53.968Z,69.20
2023-04-08T09:01:53.988Z,67.40
2023-04-08T09:02:54.104Z,64.40
2023-04-08T09:03:54.348Z,67.00
2023-04-08T09:04:54.072Z,65.30
2023-04-08T09:05:53.946Z,65.70
2023-04-08T09:06:53.934Z,65.30
2023-04-08T09:07:53.930Z,64.30
2023-04-08T09:08:53.924Z,65.50
2023-04-08T09:09:53.921Z,65.00
2023-04-08T09:10:53.912Z,64.80
2023-04-08T09:11:53.915Z,63.60
2023-04-08T09:12:53.931Z,62.70
2023-04-08T09:13:53.912Z,63.30
2023-04-08T09:14:53.894Z,60.70
2023-04-08T09:15:53.914Z,61.60
2023-04-08T09:16:53.978Z,60.90
2023-04-08T09:17:53.919Z,60.00
2023-04-08T09:18:53.873Z,63.00
2023-04-08T09:19:53.872Z,61.40
2023-04-08T09:20:53.896Z,61.30
2023-04-08T09:21:53.863Z,61.40
2023-04-08T09:22:53.866Z,62.10
2023-04-08T09:23:54.054Z,63.70
2023-04-08T09:24:53.846Z,62.50
2023-04-08T09:25:53.848Z,60.90
2023-04-08T09:26:54.292Z,62.90
2023-04-08T09:27:53.831Z,62.40
2023-04-08T09:28:53.850Z,60.90
2023-04-08T09:29:53.830Z,58.40
2023-04-08T09:30:53.827Z,59.80
2023-04-08T09:31:53.843Z,60.30
2023-04-08T09:32:53.890Z,59.20
2023-04-08T09:33:53.807Z,59.60
2023-04-08T09:34:53.797Z,61.70
2023-04-08T09:35:53.831Z,62.10
2023-04-08T09:36:53.793Z,60.90
2023-04-08T09:37:53.783Z,58.30
2023-04-08T09:38:53.785Z,58.60
2023-04-08T09:39:53.775Z,58.10
2023-04-08T09:40:53.767Z,56.10
2023-04-08T09:41:53.775Z,56.90
2023-04-08T09:42:53.755Z,56.90
2023-04-08T09:43:53.891Z,56.40
2023-04-08T09:44:53.764Z,55.70
2023-04-08T09:45:53.781Z,56.10
2023-04-08T09:46:53.746Z,56.70
2023-04-08T09:47:53.786Z,55.40
2023-04-08T09:48:53.727Z,53.70
2023-04-08T09:49:53.716Z,54.70
2023-04-08T09:50:53.723Z,52.60
2023-04-08T09:51:53.715Z,53.20
2023-04-08T09:52:53.709Z,53.70
2023-04-08T09:53:53.700Z,53.20
2023-04-08T09:54:53.702Z,53.60
2023-04-08T09:55:53.694Z,53.40
2023-04-08T09:56:53.687Z,54.60
2023-04-08T09:57:53.686Z,53.00
2023-04-08T09:58:53.722Z,50.90
2023-04-08T09:59:53.701Z,53.50
2023-04-08T10:00:53.722Z,51.70
2023-04-08T10:01:53.884Z,52.10
2023-04-08T10:02:53.894Z,49.70
2023-04-08T10:03:53.946Z,50.30
2023-04-08T10:04:53.704Z,51.00
2023-04-08T10:05:53.640Z,50.10
2023-04-08T10:06:53.645Z,49.60
2023-04-08T10:07:53.697Z,51.50
2023-04-08T10:08:53.664Z,52.50
2023-04-08T10:09:53.665Z,53.90
2023-04-08T10:10:53.626Z,53.80
2023-04-08T10:11:53.643Z,53.50
2023-04-08T10:12:53.612Z,52.00
2023-04-08T10:13:53.704Z,54.40
2023-04-08T10:14:53.600Z,53.80
2023-04-08T10:15:53.595Z,53.80
2023-04-08T10:16:53.641Z,54.70
2023-04-08T10:17:53.666Z,52.10
2023-04-08T10:18:53.583Z,51.40
2023-04-08T10:19:53.574Z,53.20
2023-04-08T10:20:53.572Z,53.20
2023-04-08T10:21:53.563Z,53.10
2023-04-08T10:22:53.563Z,52.20
2023-04-08T10:23:53.557Z,49.30
2023-04-08T10:24:53.555Z,49.20
2023-04-08T10:25:53.548Z,48.50
2023-04-08T10:26:53.543Z,49.00
2023-04-08T10:27:53.537Z,49.70
2023-04-08T10:28:53.537Z,51.50
2023-04-08T10:29:53.533Z,49.60
2023-04-08T10:30:53.529Z,48.90
2023-04-08T10:31:53.561Z,48.80
2023-04-08T10:32:53.628Z,48.70
2023-04-08T10:33:53.512Z,48.10
2023-04-08T10:34:53.511Z,46.80
2023-04-08T10:35:53.613Z,47.00
2023-04-08T10:36:53.497Z,46.50
2023-04-08T10:37:53.499Z,44.80
2023-04-08T10:38:53.484Z,44.50
2023-04-08T10:39:53.476Z,43.80
2023-04-08T10:40:53.480Z,44.70
2023-04-08T10:41:53.466Z,44.30
2023-04-08T10:42:53.462Z,45.60
2023-04-08T10:43:53.461Z,45.80
2023-04-08T10:44:53.457Z,45.30
2023-04-08T10:45:53.477Z,46.30
2023-04-08T10:46:53.443Z,45.60
2023-04-08T10:47:53.498Z,45.70
2023-04-08T10:48:53.460Z,45.00
2023-04-08T10:49:53.438Z,46.50
2023-04-08T10:50:53.426Z,46.50
2023-04-08T10:51:53.432Z,45.40
2023-04-08T10:52:53.420Z,47.00
2023-04-08T10:53:53.417Z,47.00
2023-04-08T10:54:53.412Z,46.90
2023-04-08T10:55:53.400Z,45.80
2023-04-08T10:56:53.409Z,42.10
2023-04-08T10:57:53.390Z,41.90
2023-04-08T10:58:53.394Z,44.60
2023-04-08T10:59:53.387Z,44.90
2023-04-08T11:00:53.396Z,45.80
2023-04-08T11:01:53.450Z,46.10
2023-04-08T11:02:53.500Z,47.60
2023-04-08T11:03:53.876Z,45.30
2023-04-08T11:04:53.409Z,44.10
2023-04-08T11:05:53.357Z,41.50
2023-04-08T11:06:53.354Z,41.10
2023-04-08T11:07:53.415Z,41.80
2023-04-08T11:08:53.349Z,41.40
2023-04-08T11:09:53.338Z,40.80
2023-04-08T11:10:53.338Z,27.70
2023-04-08T11:11:53.329Z,26.40
2023-04-08T11:12:53.329Z,24.30
2023-04-08T11:13:54.078Z,22.30
2023-04-08T11:14:53.323Z,20.80
2023-04-08T11:15:53.399Z,23.70
2023-04-08T11:16:53.314Z,22.50
2023-04-08T11:17:53.311Z,21.20
2023-04-08T11:18:53.302Z,21.70
2023-04-08T11:19:53.295Z,22.50
2023-04-08T11:20:53.317Z,23.60
2023-04-08T11:21:53.294Z,22.40
2023-04-08T11:22:53.289Z,21.80
2023-04-08T11:23:54.066Z,20.50
2023-04-08T11:24:53.277Z,18.10
2023-04-08T11:25:53.269Z,18.70
2023-04-08T11:26:53.268Z,18.80
2023-04-08T11:27:53.266Z,20.60
2023-04-08T11:28:53.260Z,19.70
2023-04-08T11:29:53.252Z,18.80
2023-04-08T11:30:53.292Z,18.00
2023-04-08T11:31:53.691Z,18.30
2023-04-08T11:32:53.380Z,19.70
2023-04-08T11:33:53.471Z,20.20
2023-04-08T11:34:53.236Z,19.70
2023-04-08T11:35:53.286Z,19.10
2023-04-08T11:36:53.269Z,18.30
2023-04-08T11:37:53.215Z,19.50
2023-04-08T11:38:53.213Z,18.50
2023-04-08T11:39:53.203Z,18.90
2023-04-08T11:40:53.201Z,18.80
2023-04-08T11:41:53.220Z,18.70
2023-04-08T11:42:53.209Z,19.40
2023-04-08T11:43:53.185Z,19.40
2023-04-08T11:44:53.188Z,18.80
2023-04-08T11:45:53.179Z,17.80
2023-04-08T11:46:53.284Z,18.90
2023-04-08T11:47:53.164Z,18.80
2023-04-08T11:48:53.164Z,19.40
2023-04-08T11:49:53.159Z,19.80
2023-04-08T11:50:53.155Z,20.00
2023-04-08T11:51:53.149Z,21.80
2023-04-08T11:52:53.228Z,21.40
2023-04-08T11:53:55.899Z,23.50
2023-04-08T11:54:53.146Z,23.50
2023-04-08T11:55:53.132Z,22.40
2023-04-08T11:56:53.130Z,21.80
2023-04-08T11:57:53.120Z,21.60
2023-04-08T11:58:53.136Z,21.70
2023-04-08T11:59:53.113Z,21.30
2023-04-08T12:00:53.119Z,21.90
2023-04-08T12:01:53.172Z,21.10
2023-04-08T12:02:53.185Z,20.50
2023-04-08T12:03:53.314Z,19.60
2023-04-08T12:04:53.124Z,19.80
2023-04-08T12:05:53.087Z,20.10
2023-04-08T12:06:53.092Z,18.90
2023-04-08T12:07:53.079Z,18.80
2023-04-08T12:08:53.110Z,17.90
2023-04-08T12:09:53.068Z,17.10
2023-04-08T12:10:53.064Z,16.70
2023-04-08T12:11:53.057Z,15.90
2023-04-08T12:12:53.056Z,15.40
2023-04-08T12:13:53.329Z,12.80
2023-04-08T12:14:53.053Z,13.30
2023-04-08T12:15:53.047Z,13.90
2023-04-08T12:16:53.037Z,14.40
2023-04-08T12:17:53.046Z,12.50
2023-04-08T12:18:53.027Z,14.00
2023-04-08T12:19:53.017Z,13.80
2023-04-08T12:20:53.016Z,15.30
2023-04-08T12:21:53.009Z,14.60
2023-04-08T12:22:53.009Z,15.30
2023-04-08T12:23:53.237Z,15.00
2023-04-08T12:24:53.028Z,14.60
2023-04-08T12:25:52.993Z,15.20
2023-04-08T12:26:52.989Z,14.90
2023-04-08T12:27:52.986Z,15.30
2023-04-08T12:28:52.988Z,15.70
2023-04-08T12:29:52.979Z,13.00
2023-04-08T12:30:52.968Z,12.30
2023-04-08T12:31:53.062Z,9.30
2023-04-08T12:32:53.000Z,9.00
2023-04-08T12:33:53.082Z,8.10
2023-04-08T12:34:52.952Z,8.90
2023-04-08T12:35:52.977Z,9.20
2023-04-08T12:36:52.947Z,9.50
2023-04-08T12:37:52.937Z,9.00
2023-04-08T12:38:53.077Z,9.50
2023-04-08T12:39:52.930Z,10.30
2023-04-08T12:40:52.964Z,10.20
2023-04-08T12:41:52.932Z,10.60
2023-04-08T12:42:52.925Z,10.80
2023-04-08T12:43:52.912Z,10.40
2023-04-08T12:44:52.914Z,9.80
2023-04-08T12:45:52.902Z,10.00
2023-04-08T12:46:52.953Z,9.60
2023-04-08T12:47:52.956Z,8.90
2023-04-08T12:49:03.296Z,9.70
2023-04-08T12:49:52.883Z,10.50
2023-04-08T12:50:52.883Z,10.30
2023-04-08T12:51:52.884Z,9.80
2023-04-08T12:52:52.875Z,9.20
2023-04-08T12:53:52.868Z,8.70